Time;durP1;ratioP1;P1;durP2;ratioP2;P2;SDS_P1;SDS_P2;PMS_P1;PMS_P2;Temp;Humidity;BMP_temperature;BMP_pressure;BME280_temperature;BME280_humidity;BME280_pressure;Samples;Min_cycle;Max_cycle;Signal;HPM_P1;HPM_P2
2021/12/31 00:01:30;;;;;;;8.10;2.47;;;;;;;;;;5031771;28;20018;-75
2021/12/31 00:03:56;;;;;;;5.97;2.22;;;;;;;;;;5031555;28;20056;-75
2021/12/31 00:06:21;;;;;;;6.07;2.65;;;;;;;;;;5031445;28;20028;-75
2021/12/31 00:08:46;;;;;;;2.72;2.08;;;;;;;;;;5031353;28;20029;-75
2021/12/31 00:11:12;;;;;;;6.30;2.63;;;;;;;;;;5031926;28;20033;-73
2021/12/31 00:13:37;;;;;;;3.97;2.08;;;;;;;;;;5031548;28;20017;-75
2021/12/31 00:16:03;;;;;;;7.10;2.58;;;;;;;;;;5031548;28;20096;-75
2021/12/31 00:18:28;;;;;;;6.15;2.30;;;;;;;;;;5031396;28;20498;-74
2021/12/31 00:20:55;;;;;;;5.30;2.33;;;;;;;;;;5031518;28;20033;-75
2021/12/31 00:23:24;;;;;;;6.65;2.30;;;;;;;;;;5031332;28;20060;-74
2021/12/31 00:25:50;;;;;;;4.00;1.92;;;;;;;;;;5030827;28;20104;-75
2021/12/31 00:28:15;;;;;;;6.07;2.03;;;;;;;;;;5031370;28;20131;-75
2021/12/31 00:30:41;;;;;;;4.25;2.17;;;;;;;;;;5031299;28;20072;-74
2021/12/31 00:33:08;;;;;;;5.32;2.20;;;;;;;;;;5031319;28;20033;-75
2021/12/31 00:35:35;;;;;;;4.47;2.40;;;;;;;;;;5030914;28;20021;-75
2021/12/31 00:38:00;;;;;;;4.60;2.30;;;;;;;;;;5031074;28;20029;-75
2021/12/31 00:40:26;;;;;;;5.60;2.13;;;;;;;;;;5030762;28;20036;-75
2021/12/31 00:42:52;;;;;;;5.50;2.45;;;;;;;;;;5030831;28;20030;-75
2021/12/31 00:45:19;;;;;;;8.05;2.65;;;;;;;;;;5030487;28;20022;-75
2021/12/31 00:47:45;;;;;;;7.68;2.78;;;;;;;;;;5031224;28;20083;-75
2021/12/31 00:50:12;;;;;;;6.78;2.72;;;;;;;;;;5030964;28;20033;-75
2021/12/31 00:52:37;;;;;;;5.18;2.63;;;;;;;;;;5030834;28;20112;-75
2021/12/31 00:55:07;;;;;;;6.20;2.30;;;;;;;;;;5030279;28;20113;-75
2021/12/31 00:57:32;;;;;;;9.30;2.88;;;;;;;;;;5030617;28;20045;-75
2021/12/31 00:59:58;;;;;;;6.68;2.60;;;;;;;;;;5030715;28;20030;-74
2021/12/31 01:02:27;;;;;;;7.38;2.83;;;;;;;;;;5030547;28;20395;-75
2021/12/31 01:04:52;;;;;;;9.55;3.22;;;;;;;;;;5030489;28;20025;-75
2021/12/31 01:07:17;;;;;;;5.30;2.90;;;;;;;;;;5030432;28;20364;-74
2021/12/31 01:09:43;;;;;;;6.40;2.40;;;;;;;;;;5030414;28;20479;-75
2021/12/31 01:12:10;;;;;;;6.72;2.60;;;;;;;;;;5030275;28;20537;-75
2021/12/31 01:14:40;;;;;;;8.05;2.92;;;;;;;;;;5030076;28;20087;-73
2021/12/31 01:17:11;;;;;;;5.90;2.75;;;;;;;;;;5030598;28;20108;-75
2021/12/31 01:19:45;;;;;;;9.30;2.90;;;;;;;;;;5030189;28;20052;-75
2021/12/31 01:22:11;;;;;;;5.75;2.78;;;;;;;;;;5029750;28;20045;-75
2021/12/31 01:24:37;;;;;;;7.43;2.95;;;;;;;;;;5029970;28;20021;-75
2021/12/31 01:27:02;;;;;;;10.52;3.05;;;;;;;;;;5030149;28;20034;-75
2021/12/31 01:29:27;;;;;;;7.70;3.13;;;;;;;;;;5030249;28;20033;-75
2021/12/31 01:31:55;;;;;;;5.28;2.60;;;;;;;;;;5030167;28;20075;-74
2021/12/31 01:34:22;;;;;;;5.50;2.42;;;;;;;;;;5029801;28;20063;-76
2021/12/31 01:36:48;;;;;;;5.07;2.78;;;;;;;;;;5029711;28;20021;-75
2021/12/31 01:39:13;;;;;;;6.18;2.80;;;;;;;;;;5029749;28;20106;-75
2021/12/31 01:41:40;;;;;;;10.00;2.70;;;;;;;;;;5029891;28;20040;-76
2021/12/31 01:44:06;;;;;;;8.27;2.90;;;;;;;;;;5029768;28;20036;-75
2021/12/31 01:46:33;;;;;;;9.02;3.05;;;;;;;;;;5029556;28;20029;-75
2021/12/31 01:49:03;;;;;;;8.32;3.00;;;;;;;;;;5029676;28;20021;-75
2021/12/31 01:51:29;;;;;;;10.60;2.78;;;;;;;;;;5029933;28;20029;-75
2021/12/31 01:53:55;;;;;;;6.07;3.00;;;;;;;;;;5029712;28;20480;-75
2021/12/31 01:56:23;;;;;;;6.68;2.63;;;;;;;;;;5029538;28;20021;-75
2021/12/31 01:58:55;;;;;;;9.98;2.80;;;;;;;;;;5029618;28;20032;-74
2021/12/31 02:01:22;;;;;;;5.32;2.50;;;;;;;;;;5029716;28;20028;-75
2021/12/31 02:03:48;;;;;;;8.13;3.05;;;;;;;;;;5029893;28;20053;-75
2021/12/31 02:06:14;;;;;;;7.47;2.90;;;;;;;;;;5029271;28;20026;-75
2021/12/31 02:08:39;;;;;;;8.85;3.40;;;;;;;;;;5029490;28;20031;-75
2021/12/31 02:11:04;;;;;;;9.02;3.40;;;;;;;;;;5029778;28;20408;-75
2021/12/31 02:13:30;;;;;;;8.45;2.80;;;;;;;;;;5028300;28;20044;-74
2021/12/31 02:15:55;;;;;;;9.45;3.20;;;;;;;;;;5029206;28;20049;-75
2021/12/31 02:18:20;;;;;;;9.10;3.20;;;;;;;;;;5029354;28;20025;-73
2021/12/31 02:20:47;;;;;;;10.70;3.17;;;;;;;;;;5029602;28;20096;-75
2021/12/31 02:23:14;;;;;;;10.10;3.58;;;;;;;;;;5029503;28;20053;-75
2021/12/31 02:25:40;;;;;;;7.35;2.85;;;;;;;;;;5029227;28;20036;-75
2021/12/31 02:28:05;;;;;;;10.10;2.78;;;;;;;;;;5029549;28;20030;-75
2021/12/31 02:30:31;;;;;;;6.97;3.08;;;;;;;;;;5029750;28;20091;-74
2021/12/31 02:32:56;;;;;;;9.52;3.28;;;;;;;;;;5030314;28;20112;-74
2021/12/31 02:35:22;;;;;;;5.35;3.00;;;;;;;;;;5033182;28;20072;-75
2021/12/31 02:37:47;;;;;;;9.25;2.90;;;;;;;;;;5033438;28;20036;-75
2021/12/31 02:40:15;;;;;;;10.10;2.53;;;;;;;;;;5033291;28;20029;-75
2021/12/31 02:42:41;;;;;;;10.07;3.00;;;;;;;;;;5033239;28;20079;-75
2021/12/31 02:45:08;;;;;;;6.88;2.33;;;;;;;;;;5032712;28;20037;-75
2021/12/31 02:47:34;;;;;;;5.43;2.30;;;;;;;;;;5032974;28;20022;-74
2021/12/31 02:50:03;;;;;;;7.35;3.35;;;;;;;;;;5033010;28;20025;-74
2021/12/31 02:52:28;;;;;;;8.02;2.55;;;;;;;;;;5033044;28;20029;-75
2021/12/31 02:54:57;;;;;;;5.95;2.40;;;;;;;;;;5032772;28;20387;-75
2021/12/31 02:57:23;;;;;;;8.52;2.50;;;;;;;;;;5032855;28;20518;-75
2021/12/31 02:59:49;;;;;;;6.10;2.55;;;;;;;;;;5032835;28;20056;-75
2021/12/31 03:02:20;;;;;;;9.80;2.83;;;;;;;;;;5032856;28;20410;-75
2021/12/31 03:04:46;;;;;;;4.78;2.42;;;;;;;;;;5032644;28;20034;-75
2021/12/31 03:07:13;;;;;;;10.63;2.95;;;;;;;;;;5032626;28;20064;-75
2021/12/31 03:09:46;;;;;;;8.52;2.95;;;;;;;;;;5032666;28;20087;-74
2021/12/31 03:12:13;;;;;;;8.27;2.40;;;;;;;;;;5032830;28;20411;-76
2021/12/31 03:14:42;;;;;;;7.43;3.10;;;;;;;;;;5032303;28;20032;-74
2021/12/31 03:17:08;;;;;;;7.50;2.70;;;;;;;;;;5032624;28;20013;-75
2021/12/31 03:19:33;;;;;;;7.97;2.90;;;;;;;;;;5032918;28;20022;-75
2021/12/31 03:21:59;;;;;;;7.25;2.80;;;;;;;;;;5032514;28;20105;-75
2021/12/31 03:24:25;;;;;;;5.72;2.40;;;;;;;;;;5032254;28;20064;-74
2021/12/31 03:26:50;;;;;;;10.05;2.88;;;;;;;;;;5032276;28;20124;-75
2021/12/31 03:29:15;;;;;;;4.45;2.50;;;;;;;;;;5032279;28;20586;-75
2021/12/31 03:31:40;;;;;;;5.68;2.47;;;;;;;;;;5032512;28;20025;-75
2021/12/31 03:34:06;;;;;;;7.03;2.70;;;;;;;;;;5032127;28;20518;-76
2021/12/31 03:36:31;;;;;;;6.05;2.42;;;;;;;;;;5032146;28;20044;-75
2021/12/31 03:38:56;;;;;;;7.35;2.70;;;;;;;;;;5032190;28;20029;-75
2021/12/31 03:41:22;;;;;;;6.07;2.60;;;;;;;;;;5032162;28;20017;-75
2021/12/31 03:43:47;;;;;;;7.90;2.53;;;;;;;;;;5031470;28;20487;-75
2021/12/31 03:46:12;;;;;;;8.35;2.50;;;;;;;;;;5030954;28;20033;-74
2021/12/31 03:48:38;;;;;;;11.73;2.80;;;;;;;;;;5031966;28;20030;-74
2021/12/31 03:51:03;;;;;;;7.60;2.30;;;;;;;;;;5031950;28;20030;-74
2021/12/31 03:53:28;;;;;;;5.40;2.40;;;;;;;;;;5032310;28;20289;-74
2021/12/31 03:55:54;;;;;;;8.73;2.72;;;;;;;;;;5031932;28;20489;-74
2021/12/31 03:58:19;;;;;;;5.43;2.60;;;;;;;;;;5031693;28;20028;-74
2021/12/31 04:00:46;;;;;;;10.35;3.33;;;;;;;;;;5031811;28;20025;-74
2021/12/31 04:03:12;;;;;;;5.18;2.72;;;;;;;;;;5032176;28;20392;-74
2021/12/31 04:05:40;;;;;;;7.28;2.83;;;;;;;;;;5031321;28;20033;-74
2021/12/31 04:08:06;;;;;;;6.00;2.70;;;;;;;;;;5031680;28;20057;-74
2021/12/31 04:10:32;;;;;;;7.90;3.13;;;;;;;;;;5031708;28;20029;-74
2021/12/31 04:12:57;;;;;;;4.60;2.30;;;;;;;;;;5031600;28;20029;-74
2021/12/31 04:15:23;;;;;;;6.72;2.42;;;;;;;;;;5031474;28;20036;-74
2021/12/31 04:17:48;;;;;;;3.33;2.00;;;;;;;;;;5031619;28;20029;-74
2021/12/31 04:20:20;;;;;;;6.72;2.33;;;;;;;;;;5031497;28;20279;-74
2021/12/31 04:22:53;;;;;;;6.20;2.22;;;;;;;;;;5031529;28;20083;-74
2021/12/31 04:25:18;;;;;;;7.53;2.78;;;;;;;;;;5031411;28;20022;-74
2021/12/31 04:27:44;;;;;;;5.93;2.08;;;;;;;;;;5031241;28;20112;-74
2021/12/31 04:30:09;;;;;;;8.23;2.58;;;;;;;;;;5031543;28;20021;-74
2021/12/31 04:32:35;;;;;;;4.63;2.55;;;;;;;;;;5031392;28;20037;-74
2021/12/31 04:35:00;;;;;;;7.22;2.30;;;;;;;;;;5030884;28;20026;-74
2021/12/31 04:37:25;;;;;;;7.30;2.38;;;;;;;;;;5030978;28;20120;-74
2021/12/31 04:39:51;;;;;;;8.73;2.50;;;;;;;;;;5031052;28;20028;-74
2021/12/31 04:42:16;;;;;;;4.72;2.42;;;;;;;;;;5031306;28;20479;-74
2021/12/31 04:44:41;;;;;;;4.28;2.30;;;;;;;;;;5030862;28;20021;-74
2021/12/31 04:47:07;;;;;;;10.20;2.75;;;;;;;;;;5030633;28;20034;-74
2021/12/31 04:49:33;;;;;;;6.47;2.25;;;;;;;;;;5030867;28;20112;-74
2021/12/31 04:51:58;;;;;;;5.28;2.53;;;;;;;;;;5031082;28;20040;-74
2021/12/31 04:54:23;;;;;;;8.20;2.80;;;;;;;;;;5030546;28;20079;-73
2021/12/31 04:56:52;;;;;;;9.05;2.80;;;;;;;;;;5029714;28;20607;-74
2021/12/31 04:59:18;;;;;;;5.97;2.47;;;;;;;;;;5030706;28;20025;-74
2021/12/31 05:01:43;;;;;;;6.63;2.40;;;;;;;;;;5030703;28;20040;-74
2021/12/31 05:04:08;;;;;;;7.20;2.60;;;;;;;;;;5030454;28;20040;-74
2021/12/31 05:06:34;;;;;;;7.32;2.90;;;;;;;;;;5030568;28;20115;-74
2021/12/31 05:08:59;;;;;;;5.55;2.53;;;;;;;;;;5030808;28;20531;-74
2021/12/31 05:11:25;;;;;;;6.40;2.30;;;;;;;;;;5030390;28;20494;-74
2021/12/31 05:13:50;;;;;;;4.88;2.63;;;;;;;;;;5030417;28;20376;-74
2021/12/31 05:16:16;;;;;;;6.70;2.65;;;;;;;;;;5030194;28;20372;-74
2021/12/31 05:18:41;;;;;;;6.18;2.30;;;;;;;;;;5030308;28;20391;-73
2021/12/31 05:21:06;;;;;;;4.97;2.40;;;;;;;;;;5030174;28;20075;-74
2021/12/31 05:23:31;;;;;;;5.25;2.45;;;;;;;;;;5030295;28;20493;-74
2021/12/31 05:25:57;;;;;;;9.02;2.60;;;;;;;;;;5029677;28;20546;-73
2021/12/31 05:28:22;;;;;;;7.90;2.42;;;;;;;;;;5030143;28;20087;-74
2021/12/31 05:30:47;;;;;;;6.97;2.40;;;;;;;;;;5030124;28;20105;-74
2021/12/31 05:33:13;;;;;;;6.40;2.30;;;;;;;;;;5030267;28;20029;-74
2021/12/31 05:35:38;;;;;;;6.97;2.67;;;;;;;;;;5029857;28;20028;-74
2021/12/31 05:38:03;;;;;;;5.35;2.22;;;;;;;;;;5029914;28;20033;-74
2021/12/31 05:40:28;;;;;;;5.28;2.83;;;;;;;;;;5029795;28;20029;-74
2021/12/31 05:42:54;;;;;;;6.10;2.65;;;;;;;;;;5029845;28;20057;-74
2021/12/31 05:45:19;;;;;;;7.47;3.03;;;;;;;;;;5029396;28;20487;-74
2021/12/31 05:47:46;;;;;;;9.65;3.63;;;;;;;;;;5028683;28;20036;-74
2021/12/31 05:50:19;;;;;;;7.10;3.10;;;;;;;;;;5029789;28;20030;-74
2021/12/31 05:52:47;;;;;;;6.47;3.13;;;;;;;;;;5029693;28;20029;-74
2021/12/31 05:55:12;;;;;;;15.02;4.35;;;;;;;;;;5029481;28;20112;-74
2021/12/31 05:57:38;;;;;;;7.88;3.47;;;;;;;;;;5029856;28;20534;-74
2021/12/31 06:00:04;;;;;;;6.97;3.17;;;;;;;;;;5029674;28;20029;-74
2021/12/31 06:02:29;;;;;;;7.03;2.65;;;;;;;;;;5029641;28;20034;-74
2021/12/31 06:04:55;;;;;;;5.65;2.45;;;;;;;;;;5029530;28;20029;-74
2021/12/31 06:07:20;;;;;;;4.88;2.22;;;;;;;;;;5029169;28;20022;-74
2021/12/31 06:09:45;;;;;;;3.58;2.15;;;;;;;;;;5029443;28;20041;-74
2021/12/31 06:12:11;;;;;;;6.20;2.40;;;;;;;;;;5029408;28;20182;-74
2021/12/31 06:14:37;;;;;;;5.32;2.30;;;;;;;;;;5029290;28;20033;-74
2021/12/31 06:17:06;;;;;;;3.83;2.20;;;;;;;;;;5029349;28;20180;-74
2021/12/31 06:19:33;;;;;;;6.70;2.40;;;;;;;;;;5029425;28;20026;-74
2021/12/31 06:21:58;;;;;;;3.55;2.67;;;;;;;;;;5029217;28;20121;-74
2021/12/31 06:24:23;;;;;;;4.32;3.20;;;;;;;;;;5029459;28;20081;-74
2021/12/31 06:26:49;;;;;;;8.02;4.45;;;;;;;;;;5029304;28;20033;-74
2021/12/31 06:29:14;;;;;;;5.95;3.10;;;;;;;;;;5029420;28;20025;-73
2021/12/31 06:31:39;;;;;;;11.65;3.60;;;;;;;;;;5029225;28;20026;-74
2021/12/31 06:34:04;;;;;;;8.70;3.78;;;;;;;;;;5029030;28;20116;-74
2021/12/31 06:36:30;;;;;;;6.53;3.60;;;;;;;;;;5029068;28;20018;-74
2021/12/31 06:38:57;;;;;;;6.03;3.75;;;;;;;;;;5021797;28;20061;-74
2021/12/31 06:41:22;;;;;;;7.95;4.72;;;;;;;;;;5021457;28;20053;-74
2021/12/31 06:43:48;;;;;;;9.23;6.47;;;;;;;;;;5029032;28;20149;-74
2021/12/31 06:46:13;;;;;;;9.75;5.90;;;;;;;;;;5028620;28;20488;-73
2021/12/31 06:48:38;;;;;;;10.07;5.60;;;;;;;;;;5021514;28;20041;-74
2021/12/31 06:51:04;;;;;;;11.25;6.10;;;;;;;;;;5014583;28;20083;-74
2021/12/31 06:53:29;;;;;;;8.20;5.45;;;;;;;;;;5018790;28;20053;-74
2021/12/31 06:55:54;;;;;;;8.90;5.00;;;;;;;;;;5017696;28;20018;-73
2021/12/31 06:58:20;;;;;;;8.25;5.60;;;;;;;;;;5028939;28;20557;-74
2021/12/31 07:00:45;;;;;;;11.35;6.72;;;;;;;;;;5028947;28;20033;-74
2021/12/31 07:03:12;;;;;;;8.05;4.85;;;;;;;;;;5028730;28;20044;-74
2021/12/31 07:05:40;;;;;;;8.05;4.80;;;;;;;;;;5028615;28;20029;-74
2021/12/31 07:08:05;;;;;;;10.30;5.47;;;;;;;;;;5029237;28;20419;-74
2021/12/31 07:10:30;;;;;;;12.40;6.05;;;;;;;;;;5028398;28;20060;-74
2021/12/31 07:13:01;;;;;;;10.50;6.10;;;;;;;;;;5028710;28;20022;-74
2021/12/31 07:15:27;;;;;;;6.45;4.50;;;;;;;;;;5028367;28;20348;-74
2021/12/31 07:17:52;;;;;;;7.97;5.30;;;;;;;;;;5029002;28;20385;-74
2021/12/31 07:20:18;;;;;;;7.90;4.13;;;;;;;;;;5031453;28;20091;-74
2021/12/31 07:22:44;;;;;;;9.52;4.40;;;;;;;;;;5032262;28;20033;-74
2021/12/31 07:25:09;;;;;;;10.18;4.85;;;;;;;;;;5031658;28;20272;-74
2021/12/31 07:27:34;;;;;;;7.95;4.90;;;;;;;;;;5019478;28;20029;-74
2021/12/31 07:29:59;;;;;;;13.43;7.18;;;;;;;;;;5012444;28;20411;-74
2021/12/31 07:32:26;;;;;;;11.27;6.75;;;;;;;;;;5012617;28;20018;-74
2021/12/31 07:34:52;;;;;;;12.25;7.15;;;;;;;;;;5011951;28;20553;-74
2021/12/31 07:37:17;;;;;;;12.43;6.15;;;;;;;;;;5015311;28;20045;-74
2021/12/31 07:39:47;;;;;;;10.48;6.25;;;;;;;;;;5012464;28;20025;-73
2021/12/31 07:42:12;;;;;;;8.27;4.95;;;;;;;;;;5012523;28;20033;-74
2021/12/31 07:44:37;;;;;;;7.00;4.25;;;;;;;;;;5012204;28;20041;-74
2021/12/31 07:47:03;;;;;;;11.55;4.55;;;;;;;;;;5016275;28;20040;-74
2021/12/31 07:49:28;;;;;;;8.82;4.40;;;;;;;;;;5032078;28;20373;-74
2021/12/31 07:51:53;;;;;;;10.82;6.30;;;;;;;;;;5032436;28;20087;-74
2021/12/31 07:54:19;;;;;;;11.73;7.10;;;;;;;;;;5032116;28;20207;-74
2021/12/31 07:56:44;;;;;;;14.15;6.95;;;;;;;;;;5031872;28;20022;-74
2021/12/31 07:59:09;;;;;;;15.00;7.32;;;;;;;;;;5031726;28;20032;-74
2021/12/31 08:01:35;;;;;;;10.63;6.07;;;;;;;;;;5031774;28;20040;-74
2021/12/31 08:04:00;;;;;;;9.95;6.05;;;;;;;;;;5031298;28;20021;-74
2021/12/31 08:06:25;;;;;;;12.50;6.30;;;;;;;;;;5031411;28;20052;-74
2021/12/31 08:08:50;;;;;;;7.28;5.28;;;;;;;;;;5031494;28;20084;-74
2021/12/31 08:11:16;;;;;;;10.77;6.45;;;;;;;;;;5031655;28;20083;-74
2021/12/31 08:13:41;;;;;;;9.82;6.60;;;;;;;;;;5031347;28;20017;-74
2021/12/31 08:16:06;;;;;;;12.85;7.35;;;;;;;;;;5031392;28;20113;-74
2021/12/31 08:18:32;;;;;;;9.00;6.43;;;;;;;;;;5031317;28;20040;-74
2021/12/31 08:20:57;;;;;;;10.18;6.95;;;;;;;;;;5031259;28;20036;-74
2021/12/31 08:23:22;;;;;;;14.07;7.63;;;;;;;;;;5031232;28;20040;-74
2021/12/31 08:25:48;;;;;;;13.23;8.55;;;;;;;;;;5020752;28;20406;-74
2021/12/31 08:28:13;;;;;;;11.95;6.85;;;;;;;;;;5011146;28;20053;-74
2021/12/31 08:30:39;;;;;;;14.50;7.75;;;;;;;;;;5030022;28;20424;-74
2021/12/31 08:33:05;;;;;;;13.52;8.88;;;;;;;;;;5030233;28;20426;-74
2021/12/31 08:35:31;;;;;;;25.55;19.63;;;;;;;;;;5029944;28;20161;-74
2021/12/31 08:37:56;;;;;;;23.90;15.95;;;;;;;;;;5030059;28;20052;-74
2021/12/31 08:40:21;;;;;;;17.67;14.10;;;;;;;;;;5030735;28;20036;-74
2021/12/31 08:42:47;;;;;;;14.73;11.60;;;;;;;;;;5030503;28;20032;-74
2021/12/31 08:45:12;;;;;;;21.88;11.45;;;;;;;;;;5029275;28;20022;-74
2021/12/31 08:47:38;;;;;;;9.57;6.50;;;;;;;;;;5030853;28;20033;-74
2021/12/31 08:50:03;;;;;;;10.63;6.65;;;;;;;;;;5029887;28;20025;-74
2021/12/31 08:52:29;;;;;;;12.63;6.13;;;;;;;;;;5029966;28;20035;-74
2021/12/31 08:54:54;;;;;;;6.15;4.57;;;;;;;;;;5030112;28;20372;-74
2021/12/31 08:57:19;;;;;;;7.72;4.35;;;;;;;;;;5030420;28;20029;-74
2021/12/31 08:59:45;;;;;;;9.15;4.28;;;;;;;;;;5030056;28;20033;-74
2021/12/31 09:02:11;;;;;;;10.73;7.38;;;;;;;;;;5030347;28;20453;-74
2021/12/31 09:04:37;;;;;;;12.60;7.32;;;;;;;;;;5029779;28;20022;-74
2021/12/31 09:07:02;;;;;;;8.40;5.47;;;;;;;;;;5029899;28;20426;-74
2021/12/31 09:09:28;;;;;;;6.38;4.13;;;;;;;;;;5030197;28;20033;-74
2021/12/31 09:11:54;;;;;;;5.10;2.70;;;;;;;;;;5030088;28;20079;-74
2021/12/31 09:14:20;;;;;;;4.55;2.60;;;;;;;;;;5030023;28;20511;-74
2021/12/31 09:16:47;;;;;;;5.47;2.65;;;;;;;;;;5029723;28;20053;-74
2021/12/31 09:19:13;;;;;;;4.15;2.20;;;;;;;;;;5029852;28;20036;-74
2021/12/31 09:21:39;;;;;;;6.93;5.30;;;;;;;;;;5030010;28;20025;-74
2021/12/31 09:24:04;;;;;;;8.27;4.55;;;;;;;;;;5029724;28;20053;-74
2021/12/31 09:26:31;;;;;;;3.15;2.78;;;;;;;;;;5029696;28;20041;-73
2021/12/31 09:28:56;;;;;;;7.18;2.70;;;;;;;;;;5029692;28;20121;-74
2021/12/31 09:31:21;;;;;;;3.70;2.75;;;;;;;;;;5029386;28;20120;-74
2021/12/31 09:33:47;;;;;;;4.28;2.30;;;;;;;;;;5028906;28;20033;-74
2021/12/31 09:36:13;;;;;;;5.85;2.88;;;;;;;;;;5029707;28;20033;-74
2021/12/31 09:38:38;;;;;;;4.72;2.90;;;;;;;;;;5029761;28;20044;-74
2021/12/31 09:41:04;;;;;;;3.75;2.30;;;;;;;;;;5029554;28;20060;-74
2021/12/31 09:43:29;;;;;;;5.65;2.25;;;;;;;;;;5029576;28;20021;-75
2021/12/31 09:45:55;;;;;;;3.35;2.30;;;;;;;;;;5029844;28;20044;-74
2021/12/31 09:48:22;;;;;;;4.10;2.40;;;;;;;;;;5029172;28;20052;-74
2021/12/31 09:50:51;;;;;;;4.40;2.88;;;;;;;;;;5029475;28;20050;-74
2021/12/31 09:53:18;;;;;;;4.15;2.65;;;;;;;;;;5029521;28;20021;-74
2021/12/31 09:55:51;;;;;;;3.97;2.40;;;;;;;;;;5029458;28;20034;-75
2021/12/31 09:58:18;;;;;;;3.83;2.38;;;;;;;;;;5029457;28;20486;-74
2021/12/31 10:00:49;;;;;;;3.22;2.40;;;;;;;;;;5029491;28;20026;-74
2021/12/31 10:03:17;;;;;;;5.45;2.47;;;;;;;;;;5029545;28;20025;-74
2021/12/31 10:05:47;;;;;;;3.50;2.35;;;;;;;;;;5029204;28;20036;-74
2021/12/31 10:08:23;;;;;;;3.97;2.20;;;;;;;;;;5029301;28;20538;-75
2021/12/31 10:11:05;;;;;;;4.10;2.17;;;;;;;;;;5029448;28;20032;-74
2021/12/31 10:13:31;;;;;;;7.40;2.20;;;;;;;;;;5028590;28;20021;-74
2021/12/31 10:15:57;;;;;;;3.45;2.05;;;;;;;;;;5028851;28;20236;-73
2021/12/31 10:18:34;;;;;;;2.65;2.08;;;;;;;;;;5029243;28;20029;-73
2021/12/31 10:21:00;;;;;;;3.33;2.10;;;;;;;;;;5028830;28;20430;-74
2021/12/31 10:23:25;;;;;;;3.40;2.05;;;;;;;;;;5029311;28;20030;-74
2021/12/31 10:26:06;;;;;;;3.38;1.90;;;;;;;;;;5028684;28;20056;-73
2021/12/31 10:28:31;;;;;;;4.05;1.90;;;;;;;;;;5029041;28;20053;-74
2021/12/31 10:31:09;;;;;;;4.70;2.50;;;;;;;;;;5029274;28;20076;-73
2021/12/31 10:33:43;;;;;;;5.05;2.00;;;;;;;;;;5029471;28;20029;-74
2021/12/31 10:36:09;;;;;;;3.53;2.10;;;;;;;;;;5029465;28;20048;-73
2021/12/31 10:38:39;;;;;;;5.00;3.08;;;;;;;;;;5028174;28;20456;-73
2021/12/31 10:41:05;;;;;;;7.45;3.67;;;;;;;;;;5028579;28;20025;-73
2021/12/31 10:43:30;;;;;;;4.38;2.55;;;;;;;;;;5028856;28;20099;-74
2021/12/31 10:46:08;;;;;;;3.85;2.38;;;;;;;;;;5027344;28;20057;-74
2021/12/31 10:48:44;;;;;;;3.83;1.83;;;;;;;;;;5028916;28;20037;-74
2021/12/31 10:51:12;;;;;;;7.25;4.00;;;;;;;;;;5028578;28;20311;-73
2021/12/31 10:53:37;;;;;;;4.43;2.72;;;;;;;;;;5029548;28;20067;-73
2021/12/31 10:56:10;;;;;;;26.33;19.10;;;;;;;;;;5032454;28;20045;-74
2021/12/31 10:58:37;;;;;;;6.18;4.63;;;;;;;;;;5032648;28;20047;-73
2021/12/31 11:01:08;;;;;;;4.13;2.42;;;;;;;;;;5032582;28;20040;-74
2021/12/31 11:03:35;;;;;;;2.20;1.58;;;;;;;;;;5033832;28;20021;-73
2021/12/31 11:06:02;;;;;;;3.65;2.10;;;;;;;;;;5032433;28;20488;-74
2021/12/31 11:08:29;;;;;;;3.85;2.10;;;;;;;;;;5032631;28;20534;-74
2021/12/31 11:10:56;;;;;;;4.65;2.10;;;;;;;;;;5032863;28;20471;-74
2021/12/31 11:13:27;;;;;;;3.25;1.98;;;;;;;;;;5032778;28;20495;-74
2021/12/31 11:15:54;;;;;;;3.88;2.20;;;;;;;;;;5032381;28;20155;-74
2021/12/31 11:18:23;;;;;;;2.45;1.90;;;;;;;;;;5032973;28;20104;-74
2021/12/31 11:20:50;;;;;;;3.72;2.70;;;;;;;;;;5032092;28;20025;-74
2021/12/31 11:23:16;;;;;;;4.95;2.20;;;;;;;;;;5031044;28;20044;-73
2021/12/31 11:25:56;;;;;;;3.97;2.22;;;;;;;;;;5031872;28;20097;-74
2021/12/31 11:28:28;;;;;;;3.60;2.00;;;;;;;;;;5032086;28;20026;-74
2021/12/31 11:30:53;;;;;;;4.55;2.88;;;;;;;;;;5032214;28;20468;-74
2021/12/31 11:33:26;;;;;;;4.68;2.00;;;;;;;;;;5032203;28;20067;-73
2021/12/31 11:35:51;;;;;;;3.72;2.40;;;;;;;;;;5030430;28;20032;-74
2021/12/31 11:38:22;;;;;;;2.50;1.83;;;;;;;;;;5027421;28;20021;-74
2021/12/31 11:41:00;;;;;;;3.90;2.40;;;;;;;;;;5031753;28;20252;-74
2021/12/31 11:43:28;;;;;;;5.28;2.13;;;;;;;;;;5030962;28;20025;-74
2021/12/31 11:46:29;;;;;;;5.30;2.38;;;;;;;;;;5030678;28;20036;-73
2021/12/31 11:48:55;;;;;;;9.02;4.60;;;;;;;;;;5030850;28;20061;-74
2021/12/31 11:51:24;;;;;;;21.40;10.43;;;;;;;;;;5032047;28;20417;-74
2021/12/31 11:53:58;;;;;;;16.08;7.70;;;;;;;;;;5031879;28;20083;-74
2021/12/31 11:56:33;;;;;;;10.73;5.47;;;;;;;;;;5031993;28;20056;-73
2021/12/31 11:59:21;;;;;;;5.45;2.85;;;;;;;;;;5030411;28;20022;-73
2021/12/31 12:01:51;;;;;;;5.00;2.70;;;;;;;;;;5031300;28;20025;-73
2021/12/31 12:04:22;;;;;;;2.92;2.03;;;;;;;;;;5031155;28;20038;-73
2021/12/31 12:06:55;;;;;;;4.15;2.05;;;;;;;;;;5031726;28;20046;-74
2021/12/31 12:09:21;;;;;;;4.68;2.20;;;;;;;;;;5031436;28;20029;-75
2021/12/31 12:12:21;;;;;;;4.43;2.70;;;;;;;;;;5031513;28;20033;-73
2021/12/31 12:14:51;;;;;;;5.47;2.53;;;;;;;;;;5031683;28;20030;-74
2021/12/31 12:17:17;;;;;;;9.23;3.05;;;;;;;;;;5031383;28;20448;-74
2021/12/31 12:19:45;;;;;;;3.63;2.47;;;;;;;;;;5031277;28;20032;-74
2021/12/31 12:22:39;;;;;;;4.53;2.95;;;;;;;;;;5031454;28;20104;-74
2021/12/31 12:25:05;;;;;;;5.32;3.80;;;;;;;;;;5026052;28;20037;-74
2021/12/31 12:27:31;;;;;;;6.00;2.85;;;;;;;;;;5031195;28;20041;-74
2021/12/31 12:29:57;;;;;;;3.95;2.20;;;;;;;;;;5031268;28;20467;-74
2021/12/31 12:32:36;;;;;;;5.07;3.10;;;;;;;;;;5031204;28;20029;-74
2021/12/31 12:35:21;;;;;;;4.70;2.17;;;;;;;;;;5030731;28;20105;-73
2021/12/31 12:38:11;;;;;;;2.80;2.17;;;;;;;;;;5030561;28;20029;-73
2021/12/31 12:40:46;;;;;;;3.67;2.10;;;;;;;;;;5031166;28;20041;-72
2021/12/31 12:43:14;;;;;;;3.75;1.73;;;;;;;;;;5030770;28;20463;-73
2021/12/31 12:45:41;;;;;;;2.72;1.90;;;;;;;;;;5030279;28;20384;-73
2021/12/31 12:48:07;;;;;;;2.65;1.77;;;;;;;;;;5023748;28;20030;-73
2021/12/31 12:50:32;;;;;;;3.22;2.08;;;;;;;;;;5030523;28;20387;-72
2021/12/31 12:52:57;;;;;;;4.13;1.95;;;;;;;;;;5030377;28;20037;-72
2021/12/31 12:55:23;;;;;;;3.72;2.10;;;;;;;;;;5030316;28;20056;-73
2021/12/31 12:57:53;;;;;;;4.05;1.90;;;;;;;;;;5030368;28;20131;-72
2021/12/31 13:00:34;;;;;;;2.85;1.90;;;;;;;;;;5030584;28;20491;-72
2021/12/31 13:03:07;;;;;;;3.55;1.92;;;;;;;;;;5030330;28;20538;-72
2021/12/31 13:05:33;;;;;;;3.60;2.08;;;;;;;;;;5029845;28;20467;-73
2021/12/31 13:07:59;;;;;;;2.80;1.98;;;;;;;;;;5030088;28;20036;-73
2021/12/31 13:10:26;;;;;;;11.55;5.60;;;;;;;;;;5030073;28;20033;-73
2021/12/31 13:12:53;;;;;;;7.75;3.58;;;;;;;;;;5030078;28;20404;-73
2021/12/31 13:15:19;;;;;;;10.13;4.22;;;;;;;;;;5028840;28;20080;-72
2021/12/31 13:17:58;;;;;;;3.33;2.55;;;;;;;;;;5027995;28;20446;-72
2021/12/31 13:20:29;;;;;;;8.48;3.00;;;;;;;;;;5029770;28;20032;-73
2021/12/31 13:22:57;;;;;;;4.97;3.13;;;;;;;;;;5032782;28;20074;-72
2021/12/31 13:25:42;;;;;;;4.78;2.70;;;;;;;;;;5027926;28;20021;-74
2021/12/31 13:28:21;;;;;;;2.35;2.00;;;;;;;;;;5029410;28;20668;-71
2021/12/31 13:30:54;;;;;;;4.50;2.25;;;;;;;;;;5029310;28;20029;-73
2021/12/31 13:33:26;;;;;;;4.30;2.20;;;;;;;;;;5029108;28;20033;-72
2021/12/31 13:36:25;;;;;;;3.50;2.22;;;;;;;;;;5028932;28;20026;-73
2021/12/31 13:39:03;;;;;;;4.82;3.53;;;;;;;;;;5009698;28;20056;-73
2021/12/31 13:41:31;;;;;;;7.20;4.95;;;;;;;;;;5013681;28;20032;-72
2021/12/31 13:43:58;;;;;;;4.20;3.30;;;;;;;;;;5028014;28;20182;-73
2021/12/31 13:46:32;;;;;;;6.13;5.18;;;;;;;;;;5028023;28;20469;-73
2021/12/31 13:49:02;;;;;;;2.97;2.47;;;;;;;;;;5029312;28;20038;-73
2021/12/31 13:51:30;;;;;;;4.88;3.13;;;;;;;;;;5029373;28;20168;-73
2021/12/31 13:53:56;;;;;;;4.75;2.80;;;;;;;;;;5028812;28;20033;-73
2021/12/31 13:56:39;;;;;;;2.40;2.20;;;;;;;;;;5029056;28;20437;-72
2021/12/31 13:59:33;;;;;;;3.40;2.30;;;;;;;;;;5029467;28;20017;-74
2021/12/31 14:02:06;;;;;;;4.93;3.28;;;;;;;;;;5028982;28;20045;-73
2021/12/31 14:04:33;;;;;;;3.13;2.25;;;;;;;;;;5028825;28;20628;-73
2021/12/31 14:07:16;;;;;;;3.47;2.30;;;;;;;;;;5028839;28;20120;-73
2021/12/31 14:09:42;;;;;;;4.05;2.30;;;;;;;;;;5029141;28;20101;-72
2021/12/31 14:12:08;;;;;;;3.45;2.20;;;;;;;;;;5028110;28;20113;-72
2021/12/31 14:14:34;;;;;;;3.67;2.15;;;;;;;;;;5028835;28;20591;-72
2021/12/31 14:17:00;;;;;;;3.67;2.33;;;;;;;;;;5028951;28;20030;-72
2021/12/31 14:19:25;;;;;;;4.38;2.97;;;;;;;;;;5029109;28;20082;-72
2021/12/31 14:21:51;;;;;;;5.10;2.90;;;;;;;;;;5029167;28;20028;-73
2021/12/31 14:24:16;;;;;;;4.30;3.03;;;;;;;;;;5028863;28;20017;-74
2021/12/31 14:26:41;;;;;;;3.92;2.47;;;;;;;;;;5028987;28;20606;-72
2021/12/31 14:29:07;;;;;;;4.10;2.35;;;;;;;;;;5034305;28;20022;-73
2021/12/31 14:31:33;;;;;;;4.03;2.80;;;;;;;;;;5035677;28;20044;-74
2021/12/31 14:33:58;;;;;;;5.93;3.22;;;;;;;;;;5035323;28;20478;-73
2021/12/31 14:36:26;;;;;;;4.78;3.50;;;;;;;;;;5035719;28;20029;-73
2021/12/31 14:38:51;;;;;;;5.18;3.30;;;;;;;;;;5035725;28;20103;-73
2021/12/31 14:41:22;;;;;;;5.82;3.30;;;;;;;;;;5035419;28;20467;-73
2021/12/31 14:43:52;;;;;;;3.10;2.53;;;;;;;;;;5035414;28;20151;-73